sensor_id;sensor_type;location;lat;lon;timestamp;P1;durP1;ratioP1;P2;durP2;ratioP2
75655;SDS011;64252;51.094;13.714;2023-08-06T06:15:42;5.50;;;3.40;;
75655;SDS011;64252;51.094;13.714;2023-08-06T06:18:07;5.85;;;3.80;;
75655;SDS011;64252;51.094;13.714;2023-08-06T06:20:33;5.55;;;3.83;;
75655;SDS011;64252;51.094;13.714;2023-08-06T06:22:59;5.70;;;3.90;;
75655;SDS011;64252;51.094;13.714;2023-08-06T06:25:24;6.00;;;4.32;;
75655;SDS011;64252;51.094;13.714;2023-08-06T06:27:50;6.70;;;4.40;;
75655;SDS011;64252;51.094;13.714;2023-08-06T06:30:15;6.97;;;3.80;;
75655;SDS011;64252;51.094;13.714;2023-08-06T06:32:41;6.18;;;4.72;;
75655;SDS011;64252;51.094;13.714;2023-08-06T06:35:06;5.25;;;3.72;;
75655;SDS011;64252;51.094;13.714;2023-08-06T06:37:32;6.75;;;3.85;;
75655;SDS011;64252;51.094;13.714;2023-08-06T06:39:58;4.57;;;3.10;;
75655;SDS011;64252;51.094;13.714;2023-08-06T06:42:23;4.93;;;3.00;;
75655;SDS011;64252;51.094;13.714;2023-08-06T06:44:51;4.88;;;2.97;;
75655;SDS011;64252;51.094;13.714;2023-08-06T06:47:16;4.85;;;3.08;;
75655;SDS011;64252;51.094;13.714;2023-08-06T06:49:42;5.25;;;3.10;;
75655;SDS011;64252;51.094;13.714;2023-08-06T06:52:07;4.82;;;3.33;;
75655;SDS011;64252;51.094;13.714;2023-08-06T06:54:33;5.47;;;4.00;;
75655;SDS011;64252;51.094;13.714;2023-08-06T06:56:58;5.15;;;3.08;;
75655;SDS011;64252;51.094;13.714;2023-08-06T06:59:24;6.00;;;3.38;;
75655;SDS011;64252;51.094;13.714;2023-08-06T07:01:49;5.53;;;3.35;;
75655;SDS011;64252;51.094;13.714;2023-08-06T07:04:16;4.68;;;3.00;;
75655;SDS011;64252;51.094;13.714;2023-08-06T07:06:41;4.85;;;3.42;;
75655;SDS011;64252;51.094;13.714;2023-08-06T07:09:07;4.65;;;2.92;;
75655;SDS011;64252;51.094;13.714;2023-08-06T07:11:32;4.20;;;2.90;;
75655;SDS011;64252;51.094;13.714;2023-08-06T07:13:58;5.70;;;3.05;;
75655;SDS011;64252;51.094;13.714;2023-08-06T07:16:24;5.75;;;2.90;;
75655;SDS011;64252;51.094;13.714;2023-08-06T07:18:53;7.00;;;3.97;;
75655;SDS011;64252;51.094;13.714;2023-08-06T07:23:44;5.00;;;3.10;;
75655;SDS011;64252;51.094;13.714;2023-08-06T07:26:10;9.48;;;4.10;;
75655;SDS011;64252;51.094;13.714;2023-08-06T07:28:36;6.65;;;4.75;;
75655;SDS011;64252;51.094;13.714;2023-08-06T07:31:02;7.18;;;3.85;;
75655;SDS011;64252;51.094;13.714;2023-08-06T07:33:28;6.10;;;3.58;;
75655;SDS011;64252;51.094;13.714;2023-08-06T07:35:55;5.93;;;3.65;;
75655;SDS011;64252;51.094;13.714;2023-08-06T07:38:21;6.47;;;4.00;;
75655;SDS011;64252;51.094;13.714;2023-08-06T07:40:46;7.47;;;3.40;;
75655;SDS011;64252;51.094;13.714;2023-08-06T07:43:12;8.25;;;3.63;;
75655;SDS011;64252;51.094;13.714;2023-08-06T07:45:37;5.45;;;3.22;;
75655;SDS011;64252;51.094;13.714;2023-08-06T07:48:03;5.03;;;3.60;;
75655;SDS011;64252;51.094;13.714;2023-08-06T07:50:29;4.97;;;3.60;;
75655;SDS011;64252;51.094;13.714;2023-08-06T07:52:55;5.68;;;3.35;;
75655;SDS011;64252;51.094;13.714;2023-08-06T07:55:20;5.95;;;3.50;;
75655;SDS011;64252;51.094;13.714;2023-08-06T07:57:46;6.15;;;3.53;;
75655;SDS011;64252;51.094;13.714;2023-08-06T08:00:11;5.60;;;3.35;;
75655;SDS011;64252;51.094;13.714;2023-08-06T08:02:40;7.50;;;3.70;;
75655;SDS011;64252;51.094;13.714;2023-08-06T08:05:05;6.07;;;3.20;;
75655;SDS011;64252;51.094;13.714;2023-08-06T08:07:33;5.90;;;3.17;;
75655;SDS011;64252;51.094;13.714;2023-08-06T08:09:58;3.80;;;2.70;;
75655;SDS011;64252;51.094;13.714;2023-08-06T08:12:24;4.10;;;3.10;;
75655;SDS011;64252;51.094;13.714;2023-08-06T08:14:50;4.75;;;2.95;;
75655;SDS011;64252;51.094;13.714;2023-08-06T08:17:16;5.60;;;3.00;;
75655;SDS011;64252;51.094;13.714;2023-08-06T08:19:41;4.65;;;2.55;;
75655;SDS011;64252;51.094;13.714;2023-08-06T08:22:07;5.30;;;2.55;;
75655;SDS011;64252;51.094;13.714;2023-08-06T08:24:32;4.20;;;2.42;;
75655;SDS011;64252;51.094;13.714;2023-08-06T08:26:58;5.72;;;2.53;;
75655;SDS011;64252;51.094;13.714;2023-08-06T08:29:23;3.90;;;2.47;;
75655;SDS011;64252;51.094;13.714;2023-08-06T08:31:59;6.13;;;2.30;;
75655;SDS011;64252;51.094;13.714;2023-08-06T08:34:25;6.38;;;2.10;;
75655;SDS011;64252;51.094;13.714;2023-08-06T08:36:53;3.30;;;1.90;;
75655;SDS011;64252;51.094;13.714;2023-08-06T08:39:19;3.08;;;1.98;;
75655;SDS011;64252;51.094;13.714;2023-08-06T08:41:46;4.00;;;2.08;;
75655;SDS011;64252;51.094;13.714;2023-08-06T08:44:11;3.30;;;1.73;;
75655;SDS011;64252;51.094;13.714;2023-08-06T08:46:41;3.78;;;2.00;;
75655;SDS011;64252;51.094;13.714;2023-08-06T08:49:09;5.15;;;1.98;;
75655;SDS011;64252;51.094;13.714;2023-08-06T08:51:36;4.57;;;2.65;;
75655;SDS011;64252;51.094;13.714;2023-08-06T08:54:02;3.38;;;2.13;;
75655;SDS011;64252;51.094;13.714;2023-08-06T08:56:29;4.63;;;1.88;;
75655;SDS011;64252;51.094;13.714;2023-08-06T08:58:55;3.20;;;1.65;;
75655;SDS011;64252;51.094;13.714;2023-08-06T09:01:21;4.47;;;1.70;;
75655;SDS011;64252;51.094;13.714;2023-08-06T09:03:47;4.28;;;1.75;;
75655;SDS011;64252;51.094;13.714;2023-08-06T09:06:13;4.07;;;1.90;;
75655;SDS011;64252;51.094;13.714;2023-08-06T09:08:43;3.50;;;1.67;;
75655;SDS011;64252;51.094;13.714;2023-08-06T09:11:17;6.40;;;1.90;;
75655;SDS011;64252;51.094;13.714;2023-08-06T09:16:16;2.78;;;1.40;;
75655;SDS011;64252;51.094;13.714;2023-08-06T09:18:52;3.72;;;1.40;;
75655;SDS011;64252;51.094;13.714;2023-08-06T09:21:33;3.78;;;1.65;;
75655;SDS011;64252;51.094;13.714;2023-08-06T09:24:06;4.32;;;2.05;;
75655;SDS011;64252;51.094;13.714;2023-08-06T09:26:39;4.25;;;2.00;;
75655;SDS011;64252;51.094;13.714;2023-08-06T09:29:06;3.28;;;1.65;;
75655;SDS011;64252;51.094;13.714;2023-08-06T09:31:43;4.47;;;2.13;;
75655;SDS011;64252;51.094;13.714;2023-08-06T09:34:16;3.40;;;1.83;;
75655;SDS011;64252;51.094;13.714;2023-08-06T09:36:48;2.97;;;1.88;;
75655;SDS011;64252;51.094;13.714;2023-08-06T09:39:14;6.68;;;2.08;;
75655;SDS011;64252;51.094;13.714;2023-08-06T09:41:41;3.35;;;1.95;;
75655;SDS011;64252;51.094;13.714;2023-08-06T09:44:20;5.05;;;1.90;;
75655;SDS011;64252;51.094;13.714;2023-08-06T09:46:49;4.35;;;2.33;;
75655;SDS011;64252;51.094;13.714;2023-08-06T09:49:20;3.30;;;2.10;;
75655;SDS011;64252;51.094;13.714;2023-08-06T09:51:47;4.15;;;2.08;;
75655;SDS011;64252;51.094;13.714;2023-08-06T09:54:16;6.10;;;3.50;;
75655;SDS011;64252;51.094;13.714;2023-08-06T09:56:43;4.00;;;2.30;;
75655;SDS011;64252;51.094;13.714;2023-08-06T09:59:09;3.03;;;1.90;;
75655;SDS011;64252;51.094;13.714;2023-08-06T10:01:36;4.30;;;2.22;;
75655;SDS011;64252;51.094;13.714;2023-08-06T10:04:03;3.47;;;2.20;;
75655;SDS011;64252;51.094;13.714;2023-08-06T10:06:29;3.88;;;2.00;;
75655;SDS011;64252;51.094;13.714;2023-08-06T10:09:04;3.60;;;1.90;;
75655;SDS011;64252;51.094;13.714;2023-08-06T10:11:37;4.13;;;1.98;;
75655;SDS011;64252;51.094;13.714;2023-08-06T10:16:39;3.70;;;2.30;;
75655;SDS011;64252;51.094;13.714;2023-08-06T10:19:07;3.80;;;1.80;;
75655;SDS011;64252;51.094;13.714;2023-08-06T10:21:35;4.32;;;1.95;;
75655;SDS011;64252;51.094;13.714;2023-08-06T10:24:08;3.80;;;2.00;;
75655;SDS011;64252;51.094;13.714;2023-08-06T10:26:37;3.60;;;1.65;;
75655;SDS011;64252;51.094;13.714;2023-08-06T10:32:03;2.85;;;1.48;;
75655;SDS011;64252;51.094;13.714;2023-08-06T10:37:44;3.75;;;2.17;;
75655;SDS011;64252;51.094;13.714;2023-08-06T10:40:12;3.35;;;1.70;;
75655;SDS011;64252;51.094;13.714;2023-08-06T10:42:46;3.05;;;1.70;;
75655;SDS011;64252;51.094;13.714;2023-08-06T10:45:16;5.80;;;2.28;;
75655;SDS011;64252;51.094;13.714;2023-08-06T10:47:49;4.07;;;2.08;;
75655;SDS011;64252;51.094;13.714;2023-08-06T10:50:21;3.45;;;1.90;;
75655;SDS011;64252;51.094;13.714;2023-08-06T10:52:47;4.28;;;1.80;;
75655;SDS011;64252;51.094;13.714;2023-08-06T10:55:33;4.15;;;2.00;;
75655;SDS011;64252;51.094;13.714;2023-08-06T10:58:01;3.15;;;1.80;;
75655;SDS011;64252;51.094;13.714;2023-08-06T11:00:26;5.05;;;1.80;;
75655;SDS011;64252;51.094;13.714;2023-08-06T11:02:52;2.97;;;1.50;;
75655;SDS011;64252;51.094;13.714;2023-08-06T11:05:18;3.42;;;2.00;;
75655;SDS011;64252;51.094;13.714;2023-08-06T11:07:44;3.88;;;2.22;;
75655;SDS011;64252;51.094;13.714;2023-08-06T11:10:14;4.22;;;1.70;;
75655;SDS011;64252;51.094;13.714;2023-08-06T11:12:43;3.95;;;1.55;;
75655;SDS011;64252;51.094;13.714;2023-08-06T11:15:11;3.38;;;1.70;;
75655;SDS011;64252;51.094;13.714;2023-08-06T11:17:40;3.25;;;1.60;;
75655;SDS011;64252;51.094;13.714;2023-08-06T11:20:09;4.05;;;1.75;;
75655;SDS011;64252;51.094;13.714;2023-08-06T11:22:36;3.58;;;1.63;;
75655;SDS011;64252;51.094;13.714;2023-08-06T11:25:02;2.90;;;1.73;;
75655;SDS011;64252;51.094;13.714;2023-08-06T11:27:30;3.53;;;1.50;;
75655;SDS011;64252;51.094;13.714;2023-08-06T11:29:57;3.03;;;1.80;;
75655;SDS011;64252;51.094;13.714;2023-08-06T11:32:28;7.32;;;3.95;;
75655;SDS011;64252;51.094;13.714;2023-08-06T11:34:54;2.92;;;1.73;;
75655;SDS011;64252;51.094;13.714;2023-08-06T11:37:21;3.92;;;1.83;;
75655;SDS011;64252;51.094;13.714;2023-08-06T11:39:49;3.65;;;2.00;;
75655;SDS011;64252;51.094;13.714;2023-08-06T11:42:15;3.30;;;1.70;;
75655;SDS011;64252;51.094;13.714;2023-08-06T11:44:41;3.65;;;1.83;;
75655;SDS011;64252;51.094;13.714;2023-08-06T11:47:17;3.00;;;1.73;;
75655;SDS011;64252;51.094;13.714;2023-08-06T11:49:44;3.97;;;1.50;;
75655;SDS011;64252;51.094;13.714;2023-08-06T11:52:16;4.10;;;2.33;;
75655;SDS011;64252;51.094;13.714;2023-08-06T11:54:47;4.05;;;1.90;;
75655;SDS011;64252;51.094;13.714;2023-08-06T11:57:13;3.80;;;1.75;;
75655;SDS011;64252;51.094;13.714;2023-08-06T11:59:40;2.63;;;1.50;;
75655;SDS011;64252;51.094;13.714;2023-08-06T12:02:07;3.50;;;1.75;;
75655;SDS011;64252;51.094;13.714;2023-08-06T12:07:36;4.65;;;1.90;;
75655;SDS011;64252;51.094;13.714;2023-08-06T12:10:03;2.83;;;1.52;;
75655;SDS011;64252;51.094;13.714;2023-08-06T12:12:30;2.90;;;1.70;;
75655;SDS011;64252;51.094;13.714;2023-08-06T12:14:58;3.95;;;1.55;;
75655;SDS011;64252;51.094;13.714;2023-08-06T12:17:24;3.63;;;1.70;;
75655;SDS011;64252;51.094;13.714;2023-08-06T12:19:56;3.47;;;1.70;;
75655;SDS011;64252;51.094;13.714;2023-08-06T12:22:21;4.65;;;2.05;;
75655;SDS011;64252;51.094;13.714;2023-08-06T12:24:50;3.42;;;1.98;;
75655;SDS011;64252;51.094;13.714;2023-08-06T12:27:19;3.30;;;1.73;;
75655;SDS011;64252;51.094;13.714;2023-08-06T12:29:47;2.83;;;1.67;;
75655;SDS011;64252;51.094;13.714;2023-08-06T12:32:15;3.22;;;1.55;;
75655;SDS011;64252;51.094;13.714;2023-08-06T12:34:42;3.28;;;1.80;;
75655;SDS011;64252;51.094;13.714;2023-08-06T12:37:08;2.88;;;1.75;;
75655;SDS011;64252;51.094;13.714;2023-08-06T12:39:35;3.47;;;1.70;;
75655;SDS011;64252;51.094;13.714;2023-08-06T12:42:02;3.25;;;1.60;;
75655;SDS011;64252;51.094;13.714;2023-08-06T12:44:29;8.43;;;5.72;;
75655;SDS011;64252;51.094;13.714;2023-08-06T12:46:55;6.05;;;3.50;;
75655;SDS011;64252;51.094;13.714;2023-08-06T12:49:22;3.65;;;2.38;;
75655;SDS011;64252;51.094;13.714;2023-08-06T12:51:50;4.20;;;1.80;;
75655;SDS011;64252;51.094;13.714;2023-08-06T12:54:16;3.00;;;1.45;;
75655;SDS011;64252;51.094;13.714;2023-08-06T12:56:43;2.60;;;1.50;;
75655;SDS011;64252;51.094;13.714;2023-08-06T12:59:13;4.38;;;1.55;;
75655;SDS011;64252;51.094;13.714;2023-08-06T13:01:40;3.80;;;1.75;;
75655;SDS011;64252;51.094;13.714;2023-08-06T13:04:07;2.92;;;1.73;;
75655;SDS011;64252;51.094;13.714;2023-08-06T13:06:32;8.20;;;4.68;;
75655;SDS011;64252;51.094;13.714;2023-08-06T13:09:05;3.72;;;2.47;;
75655;SDS011;64252;51.094;13.714;2023-08-06T13:11:38;2.92;;;1.60;;
75655;SDS011;64252;51.094;13.714;2023-08-06T13:14:09;3.58;;;1.52;;
75655;SDS011;64252;51.094;13.714;2023-08-06T13:16:37;2.85;;;1.60;;
75655;SDS011;64252;51.094;13.714;2023-08-06T13:19:04;4.00;;;2.22;;
75655;SDS011;64252;51.094;13.714;2023-08-06T13:21:36;2.83;;;1.90;;
75655;SDS011;64252;51.094;13.714;2023-08-06T13:24:17;3.67;;;1.50;;
75655;SDS011;64252;51.094;13.714;2023-08-06T13:26:43;2.30;;;1.23;;
75655;SDS011;64252;51.094;13.714;2023-08-06T13:29:10;3.03;;;1.40;;
75655;SDS011;64252;51.094;13.714;2023-08-06T13:31:36;3.15;;;1.77;;
75655;SDS011;64252;51.094;13.714;2023-08-06T13:34:06;5.35;;;1.33;;
75655;SDS011;64252;51.094;13.714;2023-08-06T13:36:31;3.83;;;1.75;;
75655;SDS011;64252;51.094;13.714;2023-08-06T13:38:57;2.72;;;1.40;;
75655;SDS011;64252;51.094;13.714;2023-08-06T13:41:24;3.13;;;1.50;;
75655;SDS011;64252;51.094;13.714;2023-08-06T13:43:50;5.18;;;2.72;;
75655;SDS011;64252;51.094;13.714;2023-08-06T13:46:17;3.55;;;2.08;;
75655;SDS011;64252;51.094;13.714;2023-08-06T13:48:47;4.15;;;1.80;;
75655;SDS011;64252;51.094;13.714;2023-08-06T13:51:16;4.15;;;1.88;;
75655;SDS011;64252;51.094;13.714;2023-08-06T13:53:42;4.25;;;1.90;;
75655;SDS011;64252;51.094;13.714;2023-08-06T13:56:09;2.70;;;1.52;;
75655;SDS011;64252;51.094;13.714;2023-08-06T13:58:36;2.65;;;1.63;;
75655;SDS011;64252;51.094;13.714;2023-08-06T14:01:05;2.67;;;1.35;;
75655;SDS011;64252;51.094;13.714;2023-08-06T14:03:32;4.70;;;1.60;;
75655;SDS011;64252;51.094;13.714;2023-08-06T14:05:58;3.70;;;2.08;;
75655;SDS011;64252;51.094;13.714;2023-08-06T14:08:23;3.33;;;1.70;;
75655;SDS011;64252;51.094;13.714;2023-08-06T14:10:50;3.00;;;1.52;;
75655;SDS011;64252;51.094;13.714;2023-08-06T14:13:17;3.03;;;1.50;;
75655;SDS011;64252;51.094;13.714;2023-08-06T14:15:43;3.30;;;1.50;;
75655;SDS011;64252;51.094;13.714;2023-08-06T14:18:12;3.80;;;1.60;;
75655;SDS011;64252;51.094;13.714;2023-08-06T14:20:41;4.85;;;1.67;;
75655;SDS011;64252;51.094;13.714;2023-08-06T14:23:07;2.95;;;1.85;;
75655;SDS011;64252;51.094;13.714;2023-08-06T14:25:33;3.20;;;1.52;;
75655;SDS011;64252;51.094;13.714;2023-08-06T14:27:59;2.88;;;1.63;;
75655;SDS011;64252;51.094;13.714;2023-08-06T14:32:53;2.90;;;1.75;;
75655;SDS011;64252;51.094;13.714;2023-08-06T14:35:18;3.50;;;1.73;;
75655;SDS011;64252;51.094;13.714;2023-08-06T14:37:44;3.13;;;1.75;;
75655;SDS011;64252;51.094;13.714;2023-08-06T14:40:11;3.30;;;1.80;;
75655;SDS011;64252;51.094;13.714;2023-08-06T14:42:37;4.15;;;2.20;;
75655;SDS011;64252;51.094;13.714;2023-08-06T14:45:03;4.03;;;2.10;;
75655;SDS011;64252;51.094;13.714;2023-08-06T14:47:30;3.55;;;2.25;;
75655;SDS011;64252;51.094;13.714;2023-08-06T14:49:55;4.15;;;2.10;;
75655;SDS011;64252;51.094;13.714;2023-08-06T14:52:21;3.20;;;2.10;;
75655;SDS011;64252;51.094;13.714;2023-08-06T14:54:47;8.20;;;2.80;;
75655;SDS011;64252;51.094;13.714;2023-08-06T14:57:13;3.50;;;2.17;;
75655;SDS011;64252;51.094;13.714;2023-08-06T14:59:40;3.67;;;2.58;;
75655;SDS011;64252;51.094;13.714;2023-08-06T15:02:06;3.38;;;2.40;;
75655;SDS011;64252;51.094;13.714;2023-08-06T15:04:35;3.67;;;2.33;;
75655;SDS011;64252;51.094;13.714;2023-08-06T15:07:01;4.55;;;2.35;;
75655;SDS011;64252;51.094;13.714;2023-08-06T15:09:26;3.83;;;2.72;;
75655;SDS011;64252;51.094;13.714;2023-08-06T15:11:52;3.67;;;2.55;;
75655;SDS011;64252;51.094;13.714;2023-08-06T15:14:18;4.32;;;3.03;;
75655;SDS011;64252;51.094;13.714;2023-08-06T15:16:46;5.32;;;2.30;;
75655;SDS011;64252;51.094;13.714;2023-08-06T15:19:19;4.05;;;2.63;;
75655;SDS011;64252;51.094;13.714;2023-08-06T15:21:45;3.70;;;2.78;;
75655;SDS011;64252;51.094;13.714;2023-08-06T15:24:11;3.85;;;2.45;;
75655;SDS011;64252;51.094;13.714;2023-08-06T15:26:37;6.78;;;2.97;;
75655;SDS011;64252;51.094;13.714;2023-08-06T15:29:03;4.10;;;3.00;;
75655;SDS011;64252;51.094;13.714;2023-08-06T15:31:35;4.15;;;2.92;;
75655;SDS011;64252;51.094;13.714;2023-08-06T15:34:02;5.50;;;3.30;;
75655;SDS011;64252;51.094;13.714;2023-08-06T15:36:29;4.60;;;3.10;;
75655;SDS011;64252;51.094;13.714;2023-08-06T15:38:54;6.15;;;3.42;;
75655;SDS011;64252;51.094;13.714;2023-08-06T15:41:23;5.50;;;3.47;;
75655;SDS011;64252;51.094;13.714;2023-08-06T15:43:49;6.32;;;3.63;;
75655;SDS011;64252;51.094;13.714;2023-08-06T15:46:14;4.63;;;3.42;;
75655;SDS011;64252;51.094;13.714;2023-08-06T15:48:41;4.35;;;3.33;;
75655;SDS011;64252;51.094;13.714;2023-08-06T15:51:07;5.43;;;3.30;;
75655;SDS011;64252;51.094;13.714;2023-08-06T15:53:33;6.10;;;3.55;;
75655;SDS011;64252;51.094;13.714;2023-08-06T15:55:59;6.30;;;3.80;;
75655;SDS011;64252;51.094;13.714;2023-08-06T15:58:26;7.60;;;4.68;;
75655;SDS011;64252;51.094;13.714;2023-08-06T16:00:52;6.35;;;4.72;;
75655;SDS011;64252;51.094;13.714;2023-08-06T16:03:18;5.53;;;4.88;;
75655;SDS011;64252;51.094;13.714;2023-08-06T16:05:43;6.10;;;4.95;;
75655;SDS011;64252;51.094;13.714;2023-08-06T16:08:09;7.90;;;5.75;;
75655;SDS011;64252;51.094;13.714;2023-08-06T16:10:35;5.78;;;4.88;;
75655;SDS011;64252;51.094;13.714;2023-08-06T16:13:01;5.88;;;5.05;;
75655;SDS011;64252;51.094;13.714;2023-08-06T16:15:28;10.52;;;7.18;;
75655;SDS011;64252;51.094;13.714;2023-08-06T16:17:53;6.97;;;5.57;;
75655;SDS011;64252;51.094;13.714;2023-08-06T16:20:19;8.25;;;5.40;;
75655;SDS011;64252;51.094;13.714;2023-08-06T16:22:44;7.57;;;5.97;;
75655;SDS011;64252;51.094;13.714;2023-08-06T16:25:12;7.78;;;6.20;;
75655;SDS011;64252;51.094;13.714;2023-08-06T16:27:38;8.50;;;6.57;;
75655;SDS011;64252;51.094;13.714;2023-08-06T16:30:05;9.00;;;6.85;;
75655;SDS011;64252;51.094;13.714;2023-08-06T16:32:31;11.05;;;7.35;;
75655;SDS011;64252;51.094;13.714;2023-08-06T16:34:58;10.57;;;8.02;;
75655;SDS011;64252;51.094;13.714;2023-08-06T16:37:24;9.95;;;7.53;;
75655;SDS011;64252;51.094;13.714;2023-08-06T16:39:50;10.82;;;8.20;;
75655;SDS011;64252;51.094;13.714;2023-08-06T16:42:15;10.25;;;8.20;;
75655;SDS011;64252;51.094;13.714;2023-08-06T16:44:41;14.13;;;10.07;;
75655;SDS011;64252;51.094;13.714;2023-08-06T16:47:07;11.10;;;8.82;;
75655;SDS011;64252;51.094;13.714;2023-08-06T16:49:32;11.68;;;8.57;;
75655;SDS011;64252;51.094;13.714;2023-08-06T16:51:58;10.57;;;8.98;;
75655;SDS011;64252;51.094;13.714;2023-08-06T16:54:24;12.32;;;9.50;;
75655;SDS011;64252;51.094;13.714;2023-08-06T16:56:49;12.57;;;9.98;;
75655;SDS011;64252;51.094;13.714;2023-08-06T16:59:17;14.50;;;9.85;;
75655;SDS011;64252;51.094;13.714;2023-08-06T17:01:44;10.13;;;7.82;;
75655;SDS011;64252;51.094;13.714;2023-08-06T17:04:13;12.48;;;10.35;;
75655;SDS011;64252;51.094;13.714;2023-08-06T17:06:39;13.82;;;10.43;;
75655;SDS011;64252;51.094;13.714;2023-08-06T17:09:06;14.70;;;8.68;;
75655;SDS011;64252;51.094;13.714;2023-08-06T17:11:32;10.88;;;8.73;;
75655;SDS011;64252;51.094;13.714;2023-08-06T17:13:58;10.52;;;8.93;;
75655;SDS011;64252;51.094;13.714;2023-08-06T17:16:27;12.77;;;10.15;;
75655;SDS011;64252;51.094;13.714;2023-08-06T17:18:55;10.38;;;7.47;;
75655;SDS011;64252;51.094;13.714;2023-08-06T17:21:21;11.13;;;7.72;;
75655;SDS011;64252;51.094;13.714;2023-08-06T17:23:49;9.32;;;7.28;;
75655;SDS011;64252;51.094;13.714;2023-08-06T17:26:15;10.77;;;8.27;;
75655;SDS011;64252;51.094;13.714;2023-08-06T17:28:41;11.93;;;8.48;;
75655;SDS011;64252;51.094;13.714;2023-08-06T17:31:06;12.30;;;8.43;;
75655;SDS011;64252;51.094;13.714;2023-08-06T17:36:02;9.32;;;6.25;;
75655;SDS011;64252;51.094;13.714;2023-08-06T17:38:28;9.65;;;6.05;;
75655;SDS011;64252;51.094;13.714;2023-08-06T17:40:54;9.18;;;6.47;;
75655;SDS011;64252;51.094;13.714;2023-08-06T17:45:59;11.30;;;8.02;;
75655;SDS011;64252;51.094;13.714;2023-08-06T17:48:25;12.05;;;8.73;;
75655;SDS011;64252;51.094;13.714;2023-08-06T17:50:51;10.48;;;7.47;;
75655;SDS011;64252;51.094;13.714;2023-08-06T17:53:17;11.98;;;8.38;;
75655;SDS011;64252;51.094;13.714;2023-08-06T17:55:42;10.82;;;7.03;;
75655;SDS011;64252;51.094;13.714;2023-08-06T17:58:08;11.07;;;6.97;;
75655;SDS011;64252;51.094;13.714;2023-08-06T18:00:35;9.23;;;6.13;;
75655;SDS011;64252;51.094;13.714;2023-08-06T18:03:01;8.50;;;6.72;;
75655;SDS011;64252;51.094;13.714;2023-08-06T18:05:26;9.88;;;7.18;;
75655;SDS011;64252;51.094;13.714;2023-08-06T18:07:56;9.50;;;6.25;;
75655;SDS011;64252;51.094;13.714;2023-08-06T18:10:22;14.00;;;7.32;;
75655;SDS011;64252;51.094;13.714;2023-08-06T18:12:48;10.02;;;8.38;;
75655;SDS011;64252;51.094;13.714;2023-08-06T18:15:13;9.40;;;7.18;;
75655;SDS011;64252;51.094;13.714;2023-08-06T18:17:39;10.15;;;7.28;;
75655;SDS011;64252;51.094;13.714;2023-08-06T18:20:10;9.07;;;7.10;;
75655;SDS011;64252;51.094;13.714;2023-08-06T18:22:36;9.75;;;7.30;;
75655;SDS011;64252;51.094;13.714;2023-08-06T18:25:03;9.15;;;7.07;;
75655;SDS011;64252;51.094;13.714;2023-08-06T18:29:59;6.88;;;3.60;;
75655;SDS011;64252;51.094;13.714;2023-08-06T18:32:26;7.20;;;3.05;;
75655;SDS011;64252;51.094;13.714;2023-08-06T18:34:52;4.45;;;2.20;;
75655;SDS011;64252;51.094;13.714;2023-08-06T18:37:17;6.65;;;2.55;;
75655;SDS011;64252;51.094;13.714;2023-08-06T18:39:43;5.95;;;2.28;;
75655;SDS011;64252;51.094;13.714;2023-08-06T18:42:09;3.60;;;2.00;;
75655;SDS011;64252;51.094;13.714;2023-08-06T18:44:34;4.60;;;2.35;;
75655;SDS011;64252;51.094;13.714;2023-08-06T18:47:00;4.50;;;2.10;;
75655;SDS011;64252;51.094;13.714;2023-08-06T18:49:25;4.43;;;2.47;;
75655;SDS011;64252;51.094;13.714;2023-08-06T18:51:51;3.42;;;1.90;;
75655;SDS011;64252;51.094;13.714;2023-08-06T18:54:17;4.53;;;2.20;;
75655;SDS011;64252;51.094;13.714;2023-08-06T18:56:42;4.90;;;1.60;;
75655;SDS011;64252;51.094;13.714;2023-08-06T18:59:10;6.20;;;1.70;;
75655;SDS011;64252;51.094;13.714;2023-08-06T19:01:37;3.55;;;1.90;;
75655;SDS011;64252;51.094;13.714;2023-08-06T19:04:03;3.92;;;2.15;;
75655;SDS011;64252;51.094;13.714;2023-08-06T19:06:29;3.70;;;1.90;;
75655;SDS011;64252;51.094;13.714;2023-08-06T19:08:58;6.35;;;2.70;;
75655;SDS011;64252;51.094;13.714;2023-08-06T19:11:24;4.18;;;2.10;;
75655;SDS011;64252;51.094;13.714;2023-08-06T19:13:49;3.90;;;1.98;;
75655;SDS011;64252;51.094;13.714;2023-08-06T19:16:15;4.35;;;2.22;;
75655;SDS011;64252;51.094;13.714;2023-08-06T19:18:41;4.90;;;2.25;;
75655;SDS011;64252;51.094;13.714;2023-08-06T19:21:06;4.47;;;2.90;;
75655;SDS011;64252;51.094;13.714;2023-08-06T19:23:32;7.28;;;3.30;;
75655;SDS011;64252;51.094;13.714;2023-08-06T19:25:59;6.00;;;3.80;;
75655;SDS011;64252;51.094;13.714;2023-08-06T19:28:27;6.25;;;2.60;;
75655;SDS011;64252;51.094;13.714;2023-08-06T19:30:53;4.07;;;2.30;;
75655;SDS011;64252;51.094;13.714;2023-08-06T19:33:22;3.75;;;2.60;;
75655;SDS011;64252;51.094;13.714;2023-08-06T19:35:48;4.97;;;2.75;;
75655;SDS011;64252;51.094;13.714;2023-08-06T19:38:16;3.78;;;2.80;;
75655;SDS011;64252;51.094;13.714;2023-08-06T19:40:43;4.50;;;3.00;;
75655;SDS011;64252;51.094;13.714;2023-08-06T19:43:08;5.75;;;3.10;;
75655;SDS011;64252;51.094;13.714;2023-08-06T19:45:35;6.97;;;3.05;;
75655;SDS011;64252;51.094;13.714;2023-08-06T19:48:01;6.47;;;3.20;;
75655;SDS011;64252;51.094;13.714;2023-08-06T19:50:27;5.15;;;2.70;;
75655;SDS011;64252;51.094;13.714;2023-08-06T19:52:52;5.95;;;2.95;;
75655;SDS011;64252;51.094;13.714;2023-08-06T19:55:18;4.55;;;2.13;;
75655;SDS011;64252;51.094;13.714;2023-08-06T19:57:43;4.97;;;2.60;;
75655;SDS011;64252;51.094;13.714;2023-08-06T20:00:09;4.00;;;2.45;;
75655;SDS011;64252;51.094;13.714;2023-08-06T20:02:38;8.35;;;2.83;;
75655;SDS011;64252;51.094;13.714;2023-08-06T20:05:03;5.05;;;2.92;;
75655;SDS011;64252;51.094;13.714;2023-08-06T20:07:30;6.22;;;2.90;;
75655;SDS011;64252;51.094;13.714;2023-08-06T20:09:56;5.25;;;3.05;;
75655;SDS011;64252;51.094;13.714;2023-08-06T20:12:21;6.07;;;3.00;;
75655;SDS011;64252;51.094;13.714;2023-08-06T20:14:47;5.45;;;3.33;;
75655;SDS011;64252;51.094;13.714;2023-08-06T20:17:13;5.25;;;3.28;;
75655;SDS011;64252;51.094;13.714;2023-08-06T20:19:38;3.83;;;2.80;;
75655;SDS011;64252;51.094;13.714;2023-08-06T20:22:04;4.60;;;2.65;;
75655;SDS011;64252;51.094;13.714;2023-08-06T20:24:30;6.72;;;2.88;;
75655;SDS011;64252;51.094;13.714;2023-08-06T20:26:56;4.75;;;2.90;;
75655;SDS011;64252;51.094;13.714;2023-08-06T20:29:22;5.78;;;3.15;;
75655;SDS011;64252;51.094;13.714;2023-08-06T20:31:48;4.95;;;2.67;;
75655;SDS011;64252;51.094;13.714;2023-08-06T20:34:14;6.10;;;3.20;;
75655;SDS011;64252;51.094;13.714;2023-08-06T20:36:39;5.95;;;3.10;;
75655;SDS011;64252;51.094;13.714;2023-08-06T20:39:05;5.25;;;3.10;;
75655;SDS011;64252;51.094;13.714;2023-08-06T20:41:30;5.32;;;3.70;;
75655;SDS011;64252;51.094;13.714;2023-08-06T20:43:56;5.68;;;3.38;;
75655;SDS011;64252;51.094;13.714;2023-08-06T20:46:22;4.78;;;2.90;;
75655;SDS011;64252;51.094;13.714;2023-08-06T20:48:47;8.75;;;3.47;;
75655;SDS011;64252;51.094;13.714;2023-08-06T20:51:13;5.00;;;3.03;;
75655;SDS011;64252;51.094;13.714;2023-08-06T20:53:38;7.22;;;3.50;;
75655;SDS011;64252;51.094;13.714;2023-08-06T20:56:04;5.05;;;3.00;;
75655;SDS011;64252;51.094;13.714;2023-08-06T20:58:30;7.13;;;2.90;;
75655;SDS011;64252;51.094;13.714;2023-08-06T21:00:56;4.82;;;2.60;;
75655;SDS011;64252;51.094;13.714;2023-08-06T21:03:24;4.22;;;2.35;;
75655;SDS011;64252;51.094;13.714;2023-08-06T21:06:03;4.25;;;2.38;;
75655;SDS011;64252;51.094;13.714;2023-08-06T21:08:30;5.22;;;2.80;;
75655;SDS011;64252;51.094;13.714;2023-08-06T21:10:57;4.38;;;2.20;;
75655;SDS011;64252;51.094;13.714;2023-08-06T21:13:25;4.32;;;2.67;;